createdAt,value
2022-11-28T00:01:38.580Z,10.73
2022-11-28T00:04:06.852Z,10.25
2022-11-28T00:06:38.449Z,10.70
2022-11-28T00:09:07.057Z,10.35
2022-11-28T00:11:34.921Z,11.90
2022-11-28T00:14:02.629Z,10.70
2022-11-28T00:16:30.152Z,10.82
2022-11-28T00:19:00.529Z,10.00
2022-11-28T00:21:28.780Z,10.82
2022-11-28T00:23:56.208Z,11.02
2022-11-28T00:26:26.926Z,9.80
2022-11-28T00:28:56.855Z,9.75
2022-11-28T00:31:27.770Z,10.60
2022-11-28T00:33:56.159Z,9.82
2022-11-28T00:36:24.728Z,9.90
2022-11-28T00:38:52.405Z,10.38
2022-11-28T00:41:26.502Z,10.13
2022-11-28T00:43:55.060Z,10.02
2022-11-28T00:46:23.274Z,9.40
2022-11-28T00:48:51.508Z,10.50
2022-11-28T00:51:21.600Z,10.10
2022-11-28T00:53:51.870Z,10.15
2022-11-28T00:56:22.309Z,10.48
2022-11-28T00:58:50.056Z,10.73
2022-11-28T01:01:23.816Z,9.95
2022-11-28T01:03:53.095Z,10.55
2022-11-28T01:06:30.059Z,10.75
2022-11-28T01:09:11.131Z,10.88
2022-11-28T01:11:40.137Z,11.20
2022-11-28T01:14:08.669Z,10.50
2022-11-28T01:16:37.322Z,11.10
2022-11-28T01:19:05.306Z,11.10
2022-11-28T01:21:33.536Z,10.55
2022-11-28T01:24:01.045Z,10.85
2022-11-28T01:26:30.135Z,10.85
2022-11-28T01:29:00.038Z,10.60
2022-11-28T01:31:29.907Z,11.85
2022-11-28T01:33:58.509Z,10.45
2022-11-28T01:36:27.054Z,11.63
2022-11-28T01:38:54.869Z,11.48
2022-11-28T01:41:26.989Z,11.13
2022-11-28T01:43:58.226Z,10.40
2022-11-28T01:46:25.863Z,11.88
2022-11-28T01:48:56.832Z,12.05
2022-11-28T01:51:24.809Z,10.73
2022-11-28T01:53:52.809Z,9.98
2022-11-28T01:56:35.797Z,11.05
2022-11-28T01:59:07.840Z,11.15
2022-11-28T02:01:35.539Z,11.23
2022-11-28T02:04:04.457Z,10.18
2022-11-28T02:06:33.318Z,11.80
2022-11-28T02:09:01.230Z,11.43
2022-11-28T02:11:34.328Z,10.98
2022-11-28T02:14:22.078Z,11.82
2022-11-28T02:17:04.578Z,11.93
2022-11-28T02:20:01.507Z,11.38
2022-11-28T02:22:28.975Z,12.18
2022-11-28T02:25:15.059Z,11.60
2022-11-28T02:27:48.237Z,11.32
2022-11-28T02:30:21.254Z,11.82
2022-11-28T02:33:10.299Z,11.93
2022-11-28T02:35:50.344Z,12.38
2022-11-28T02:38:26.597Z,12.10
2022-11-28T02:41:15.987Z,12.32
2022-11-28T02:44:06.415Z,12.50
2022-11-28T02:46:36.793Z,12.52
2022-11-28T02:49:07.449Z,13.35
2022-11-28T02:52:13.604Z,12.70
2022-11-28T02:54:43.229Z,13.10
2022-11-28T02:57:11.108Z,12.60
2022-11-28T02:59:38.485Z,12.95
2022-11-28T03:02:14.173Z,12.52
2022-11-28T03:05:19.267Z,11.80
2022-11-28T03:08:28.167Z,12.27
2022-11-28T03:11:20.168Z,12.38
2022-11-28T03:13:56.620Z,11.93
2022-11-28T03:16:57.645Z,11.93
2022-11-28T03:19:37.683Z,12.57
2022-11-28T03:22:20.578Z,12.43
2022-11-28T03:25:15.889Z,11.95
2022-11-28T03:27:54.127Z,13.13
2022-11-28T03:30:41.003Z,13.52
2022-11-28T03:33:09.859Z,14.18
2022-11-28T03:35:46.539Z,14.45
2022-11-28T03:38:21.916Z,14.20
2022-11-28T03:40:53.843Z,13.30
2022-11-28T03:43:32.313Z,12.65
2022-11-28T03:46:06.277Z,12.95
2022-11-28T03:48:42.031Z,12.60
2022-11-28T03:51:27.736Z,12.98
2022-11-28T03:54:22.219Z,13.80
2022-11-28T03:56:57.558Z,12.90
2022-11-28T03:59:51.748Z,13.15
2022-11-28T04:05:04.251Z,13.35
2022-11-28T04:07:59.062Z,13.57
2022-11-28T04:10:39.038Z,14.25
2022-11-28T04:13:20.404Z,13.95
2022-11-28T04:15:58.929Z,14.68
2022-11-28T04:18:54.075Z,13.93
2022-11-28T04:21:34.335Z,14.73
2022-11-28T04:24:06.166Z,15.13
2022-11-28T04:26:37.595Z,15.45
2022-11-28T04:29:14.003Z,15.90
2022-11-28T04:31:43.859Z,16.67
2022-11-28T04:34:15.943Z,16.83
2022-11-28T04:36:45.456Z,16.27
2022-11-28T04:39:16.371Z,15.90
2022-11-28T04:41:53.515Z,17.15
2022-11-28T04:44:31.508Z,17.23
2022-11-28T04:46:59.832Z,15.82
2022-11-28T04:49:29.892Z,17.40
2022-11-28T04:52:03.315Z,17.48
2022-11-28T04:54:38.581Z,17.38
2022-11-28T04:57:21.996Z,17.45
2022-11-28T04:59:50.318Z,17.27
2022-11-28T05:02:19.325Z,17.92
2022-11-28T05:04:47.648Z,17.63
2022-11-28T05:07:15.169Z,17.50
2022-11-28T05:09:42.749Z,17.52
2022-11-28T05:12:10.275Z,17.50
2022-11-28T05:14:37.816Z,18.75
2022-11-28T05:17:05.285Z,18.73
2022-11-28T05:19:32.817Z,18.42
2022-11-28T05:22:00.337Z,18.63
2022-11-28T05:24:32.250Z,19.45
2022-11-28T05:27:00.035Z,17.75
2022-11-28T05:29:27.556Z,17.90
2022-11-28T05:31:55.202Z,17.75
2022-11-28T05:34:22.826Z,17.25
2022-11-28T05:36:50.386Z,18.45
2022-11-28T05:39:17.856Z,18.40
2022-11-28T05:41:45.384Z,17.77
2022-11-28T05:44:12.798Z,17.90
2022-11-28T05:46:40.636Z,16.27
2022-11-28T05:49:08.814Z,17.02
2022-11-28T05:51:36.415Z,17.17
2022-11-28T05:54:04.125Z,16.60
2022-11-28T05:56:31.601Z,17.88
2022-11-28T05:58:59.205Z,17.40
2022-11-28T06:01:29.155Z,18.80
2022-11-28T06:04:01.248Z,16.98
2022-11-28T06:06:31.389Z,16.90
2022-11-28T06:08:59.303Z,16.75
2022-11-28T06:11:29.155Z,16.95
2022-11-28T06:13:57.006Z,17.10
2022-11-28T06:16:27.121Z,15.18
2022-11-28T06:18:57.032Z,15.48
2022-11-28T06:21:25.266Z,15.82
2022-11-28T06:23:52.794Z,16.67
2022-11-28T06:26:22.320Z,17.20
2022-11-28T06:28:50.296Z,14.93
2022-11-28T06:31:21.143Z,15.68
2022-11-28T06:33:49.181Z,15.90
2022-11-28T06:36:18.825Z,15.50
2022-11-28T06:38:46.473Z,15.98
2022-11-28T06:41:16.922Z,15.65
2022-11-28T06:43:44.557Z,15.73
2022-11-28T06:46:17.267Z,16.05
2022-11-28T06:48:45.615Z,17.60
2022-11-28T06:51:13.986Z,15.70
2022-11-28T06:53:42.133Z,16.20
2022-11-28T06:56:15.678Z,16.77
2022-11-28T06:58:44.267Z,15.57
2022-11-28T07:01:15.940Z,15.15
2022-11-28T07:03:44.835Z,16.05
2022-11-28T07:06:14.131Z,15.48
2022-11-28T07:08:41.886Z,15.63
2022-11-28T07:11:21.065Z,15.35
2022-11-28T07:13:50.023Z,14.60
2022-11-28T07:16:27.092Z,15.93
2022-11-28T07:18:56.224Z,15.23
2022-11-28T07:21:24.493Z,15.02
2022-11-28T07:23:52.070Z,14.52
2022-11-28T07:26:21.604Z,15.07
2022-11-28T07:28:50.241Z,15.65
2022-11-28T07:31:25.506Z,14.52
2022-11-28T07:33:53.115Z,14.25
2022-11-28T07:36:26.593Z,15.82
2022-11-28T07:38:59.785Z,13.25
2022-11-28T07:41:28.863Z,13.45
2022-11-28T07:44:02.270Z,14.38
2022-11-28T07:46:31.889Z,13.57
2022-11-28T07:48:59.530Z,12.93
2022-11-28T07:51:32.675Z,13.55
2022-11-28T07:54:01.200Z,14.57
2022-11-28T07:56:50.148Z,13.05
2022-11-28T07:59:18.927Z,13.55
2022-11-28T08:01:46.520Z,13.68
2022-11-28T08:04:14.115Z,13.68
2022-11-28T08:06:44.442Z,14.38
2022-11-28T08:09:12.291Z,13.80
2022-11-28T08:11:40.934Z,13.70
2022-11-28T08:14:08.929Z,12.77
2022-11-28T08:16:37.163Z,13.88
2022-11-28T08:19:04.803Z,12.95
2022-11-28T08:21:33.784Z,13.07
2022-11-28T08:24:02.435Z,12.27
2022-11-28T08:26:31.619Z,13.55
2022-11-28T08:29:00.733Z,12.15
2022-11-28T08:31:39.163Z,13.00
2022-11-28T08:34:09.972Z,13.18
2022-11-28T08:36:37.989Z,12.35
2022-11-28T08:41:57.440Z,13.32
2022-11-28T08:44:30.276Z,13.25
2022-11-28T08:46:58.091Z,14.23
2022-11-28T08:49:25.524Z,12.68
2022-11-28T08:51:53.056Z,12.98
2022-11-28T08:54:21.105Z,12.57
2022-11-28T08:56:48.809Z,13.20
2022-11-28T08:59:16.240Z,13.63
2022-11-28T09:01:43.799Z,13.65
2022-11-28T09:04:11.510Z,13.07
2022-11-28T09:06:40.051Z,13.52
2022-11-28T09:09:09.240Z,13.80
2022-11-28T09:11:37.564Z,13.07
2022-11-28T09:14:05.145Z,13.95
2022-11-28T09:16:32.638Z,13.60
2022-11-28T09:19:00.362Z,13.93
2022-11-28T09:21:28.053Z,14.85
2022-11-28T09:23:56.763Z,13.75
2022-11-28T09:26:25.414Z,15.23
2022-11-28T09:28:53.829Z,16.25
2022-11-28T09:31:21.702Z,14.75
2022-11-28T09:33:49.621Z,14.80
2022-11-28T09:36:20.903Z,14.95
2022-11-28T09:38:49.075Z,15.25
2022-11-28T09:41:28.812Z,15.20
2022-11-28T09:44:01.822Z,15.13
2022-11-28T09:46:34.496Z,15.23
2022-11-28T09:49:09.487Z,13.70
2022-11-28T09:51:53.213Z,15.90
2022-11-28T09:54:29.612Z,16.50
2022-11-28T09:56:59.102Z,14.82
2022-11-28T09:59:30.125Z,16.55
2022-11-28T10:02:09.872Z,16.42
2022-11-28T10:04:49.169Z,16.65
2022-11-28T10:07:26.995Z,16.15
2022-11-28T10:10:11.574Z,16.67
2022-11-28T10:13:10.132Z,17.55
2022-11-28T10:15:50.823Z,18.90
2022-11-28T10:18:38.563Z,19.75
2022-11-28T10:21:35.188Z,18.90
2022-11-28T10:24:12.290Z,18.27
2022-11-28T10:26:45.472Z,18.85
2022-11-28T10:29:37.727Z,18.55
2022-11-28T10:32:06.365Z,18.73
2022-11-28T10:34:46.105Z,18.88
2022-11-28T10:37:25.152Z,19.83
2022-11-28T10:39:53.201Z,19.95
2022-11-28T10:42:37.931Z,19.40
2022-11-28T10:45:30.388Z,20.70
2022-11-28T10:48:38.127Z,19.13
2022-11-28T10:51:04.453Z,18.58
2022-11-28T10:53:41.828Z,19.10
2022-11-28T10:56:40.051Z,20.55
2022-11-28T10:59:31.771Z,20.08
2022-11-28T11:02:04.128Z,20.48
2022-11-28T11:04:35.694Z,18.63
2022-11-28T11:07:20.139Z,18.13
2022-11-28T11:09:49.256Z,19.40
2022-11-28T11:12:31.550Z,18.50
2022-11-28T11:14:59.169Z,17.33
2022-11-28T11:17:36.359Z,18.48
2022-11-28T11:20:29.902Z,18.55
2022-11-28T11:22:59.988Z,18.60
2022-11-28T11:25:30.063Z,17.20
2022-11-28T11:28:03.111Z,18.23
2022-11-28T11:30:42.889Z,18.23
2022-11-28T11:33:17.551Z,17.95
2022-11-28T11:35:48.861Z,19.52
2022-11-28T11:38:22.221Z,19.70
2022-11-28T11:40:51.056Z,18.15
2022-11-28T11:43:30.549Z,18.50
2022-11-28T11:46:24.466Z,19.05
2022-11-28T11:48:53.671Z,19.83
2022-11-28T11:51:24.169Z,17.77
2022-11-28T11:54:18.269Z,18.55
2022-11-28T11:56:53.577Z,19.70
2022-11-28T11:59:39.297Z,19.20
2022-11-28T12:02:35.192Z,18.48
2022-11-28T12:05:16.727Z,18.73
2022-11-28T12:08:07.177Z,19.65
2022-11-28T12:10:38.002Z,18.40
2022-11-28T12:13:05.512Z,18.85
2022-11-28T12:15:52.681Z,18.33
2022-11-28T12:18:55.048Z,18.13
2022-11-28T12:21:28.485Z,18.08
2022-11-28T12:24:04.239Z,16.15
2022-11-28T12:26:31.828Z,17.67
2022-11-28T12:32:18.233Z,16.35
2022-11-28T12:35:04.907Z,15.93
2022-11-28T12:38:13.766Z,16.55
2022-11-28T12:41:02.085Z,16.92
2022-11-28T12:43:47.861Z,17.10
2022-11-28T12:46:54.976Z,16.83
2022-11-28T12:49:52.965Z,16.33
2022-11-28T12:52:29.130Z,16.13
2022-11-28T12:55:28.765Z,15.55
2022-11-28T12:58:06.672Z,15.73
2022-11-28T13:00:46.542Z,15.65
2022-11-28T13:03:25.445Z,16.75
2022-11-28T13:06:04.214Z,15.40
2022-11-28T13:08:34.722Z,16.58
2022-11-28T13:11:20.975Z,15.40
2022-11-28T13:13:54.722Z,16.10
2022-11-28T13:18:58.846Z,17.83
2022-11-28T13:21:33.899Z,20.08
2022-11-28T13:24:27.848Z,20.75
2022-11-28T13:27:16.988Z,22.75
2022-11-28T13:30:09.521Z,21.35
2022-11-28T13:32:50.014Z,23.35
2022-11-28T13:35:19.864Z,23.05
2022-11-28T13:40:58.091Z,21.23
2022-11-28T13:43:50.810Z,22.52
2022-11-28T13:46:19.361Z,20.05
2022-11-28T13:51:36.265Z,20.60
2022-11-28T13:54:21.620Z,20.92
2022-11-28T13:57:22.635Z,19.58
2022-11-28T14:00:05.930Z,19.67
2022-11-28T14:02:47.008Z,20.50
2022-11-28T14:05:35.059Z,19.15
2022-11-28T14:08:05.160Z,20.30
2022-11-28T14:10:49.774Z,19.90
2022-11-28T14:13:52.550Z,20.00
2022-11-28T14:16:23.179Z,18.40
2022-11-28T14:19:23.270Z,19.73
2022-11-28T14:21:56.977Z,17.95
2022-11-28T14:24:46.113Z,17.42
2022-11-28T14:27:32.244Z,17.50
2022-11-28T14:30:01.265Z,17.73
2022-11-28T14:32:39.280Z,18.70
2022-11-28T14:35:17.841Z,18.65
2022-11-28T14:37:54.372Z,18.83
2022-11-28T14:40:59.705Z,18.88
2022-11-28T14:43:41.213Z,18.55
2022-11-28T14:47:13.505Z,19.05
2022-11-28T14:49:41.079Z,18.67
2022-11-28T14:52:44.697Z,18.45
2022-11-28T14:55:19.036Z,20.45
2022-11-28T14:57:57.799Z,19.63
2022-11-28T15:00:28.101Z,19.85
2022-11-28T15:03:40.420Z,20.02
2022-11-28T15:06:22.013Z,20.88
2022-11-28T15:09:04.044Z,20.65
2022-11-28T15:11:46.741Z,21.15
2022-11-28T15:14:14.259Z,20.75
2022-11-28T15:16:50.266Z,21.10
2022-11-28T15:19:20.291Z,21.42
2022-11-28T15:21:51.404Z,21.30
2022-11-28T15:24:31.786Z,20.85
2022-11-28T15:27:26.765Z,21.02
2022-11-28T15:29:55.213Z,22.10
2022-11-28T15:32:24.003Z,21.90
2022-11-28T15:35:09.254Z,22.45
2022-11-28T15:37:50.768Z,22.98
2022-11-28T15:40:26.463Z,23.50
2022-11-28T15:42:55.083Z,22.35
2022-11-28T15:45:26.131Z,22.10
2022-11-28T15:47:55.718Z,21.77
2022-11-28T15:50:28.792Z,22.70
2022-11-28T15:53:17.568Z,26.40
2022-11-28T15:55:45.979Z,23.33
2022-11-28T15:58:31.792Z,21.77
2022-11-28T16:01:03.441Z,22.15
2022-11-28T16:03:37.211Z,22.80
2022-11-28T16:06:06.052Z,21.65
2022-11-28T16:08:41.072Z,21.85
2022-11-28T16:11:10.831Z,22.33
2022-11-28T16:13:40.341Z,20.88
2022-11-28T16:16:35.849Z,21.70
2022-11-28T16:19:09.261Z,22.60
2022-11-28T16:21:45.462Z,21.17
2022-11-28T16:24:42.104Z,21.45
2022-11-28T16:27:33.843Z,21.40
2022-11-28T16:30:11.487Z,20.65
2022-11-28T16:32:40.434Z,22.40
2022-11-28T16:35:12.617Z,23.30
2022-11-28T16:37:40.161Z,23.95
2022-11-28T16:40:21.093Z,23.88
2022-11-28T16:42:56.465Z,24.92
2022-11-28T16:45:32.835Z,23.98
2022-11-28T16:48:19.426Z,24.73
2022-11-28T16:51:21.735Z,22.52
2022-11-28T16:53:52.342Z,22.15
2022-11-28T16:56:32.321Z,22.52
2022-11-28T16:59:19.437Z,22.88
2022-11-28T17:01:51.562Z,21.35
2022-11-28T17:04:25.060Z,23.10
2022-11-28T17:06:54.171Z,22.00
2022-11-28T17:09:21.649Z,23.23
2022-11-28T17:12:15.007Z,21.77
2022-11-28T17:14:44.213Z,23.40
2022-11-28T17:17:17.063Z,22.98
2022-11-28T17:19:45.751Z,22.23
2022-11-28T17:22:16.410Z,21.95
2022-11-28T17:24:44.740Z,21.50
2022-11-28T17:27:13.981Z,21.38
2022-11-28T17:29:42.210Z,21.77
2022-11-28T17:32:14.680Z,21.85
2022-11-28T17:34:43.133Z,21.27
2022-11-28T17:37:10.829Z,21.45
2022-11-28T17:39:38.937Z,21.73
2022-11-28T17:42:06.830Z,21.52
2022-11-28T17:44:36.508Z,22.13
2022-11-28T17:47:05.149Z,21.88
2022-11-28T17:49:33.461Z,21.95
2022-11-28T17:52:01.262Z,21.73
2022-11-28T17:54:29.876Z,21.67
2022-11-28T17:56:57.866Z,22.02
2022-11-28T17:59:27.088Z,21.52
2022-11-28T18:01:55.057Z,22.02
2022-11-28T18:04:26.403Z,22.33
2022-11-28T18:06:54.189Z,22.20
2022-11-28T18:09:21.667Z,24.00
2022-11-28T18:11:49.579Z,23.95
2022-11-28T18:14:19.620Z,21.40
2022-11-28T18:16:48.315Z,22.75
2022-11-28T18:19:15.852Z,22.55
2022-11-28T18:21:43.436Z,23.08
2022-11-28T18:24:11.013Z,22.85
2022-11-28T18:26:39.475Z,23.85
2022-11-28T18:29:08.745Z,22.25
2022-11-28T18:31:38.060Z,22.05
2022-11-28T18:34:07.828Z,22.98
2022-11-28T18:36:36.970Z,21.83
2022-11-28T18:39:12.367Z,22.67
2022-11-28T18:41:40.823Z,23.25
2022-11-28T18:44:10.116Z,21.88
2022-11-28T18:46:39.425Z,22.33
2022-11-28T18:49:08.397Z,21.55
2022-11-28T18:51:36.163Z,22.67
2022-11-28T18:54:05.516Z,21.50
2022-11-28T18:56:34.861Z,20.85
2022-11-28T18:59:02.965Z,25.08
2022-11-28T19:01:33.822Z,23.33
2022-11-28T19:04:11.675Z,23.50
2022-11-28T19:06:40.694Z,26.42
2022-11-28T19:09:14.261Z,27.52
2022-11-28T19:11:43.137Z,27.63
2022-11-28T19:14:15.537Z,28.73
2022-11-28T19:16:43.810Z,28.95
2022-11-28T19:19:17.055Z,30.05
2022-11-28T19:21:44.647Z,28.90
2022-11-28T19:24:13.756Z,30.63
2022-11-28T19:26:41.575Z,27.50
2022-11-28T19:29:09.998Z,28.67
2022-11-28T19:31:38.929Z,26.90
2022-11-28T19:34:18.464Z,26.42
2022-11-28T19:36:49.239Z,26.85
2022-11-28T19:39:18.010Z,23.55
2022-11-28T19:41:46.711Z,24.20
2022-11-28T19:44:15.113Z,24.20
2022-11-28T19:50:55.820Z,22.02
2022-11-28T19:53:24.087Z,23.02
2022-11-28T19:55:52.247Z,22.75
2022-11-28T19:58:20.038Z,23.38
2022-11-28T20:00:47.784Z,23.33
2022-11-28T20:03:16.018Z,23.33
2022-11-28T20:05:44.144Z,22.25
2022-11-28T20:08:11.876Z,21.83
2022-11-28T20:10:40.053Z,22.98
2022-11-28T20:13:08.107Z,20.58
2022-11-28T20:15:37.043Z,21.15
2022-11-28T20:18:05.334Z,22.00
2022-11-28T20:20:34.028Z,21.05
2022-11-28T20:23:01.818Z,23.10
2022-11-28T20:25:29.471Z,21.63
2022-11-28T20:27:57.260Z,22.83
2022-11-28T20:30:24.828Z,21.73
2022-11-28T20:32:53.718Z,22.05
2022-11-28T20:35:23.398Z,21.10
2022-11-28T20:37:51.059Z,22.30
2022-11-28T20:40:18.640Z,22.00
2022-11-28T20:42:46.179Z,21.58
2022-11-28T20:45:13.569Z,21.23
2022-11-28T20:47:44.228Z,21.35
2022-11-28T20:50:14.184Z,20.42
2022-11-28T20:52:41.601Z,20.17
2022-11-28T20:55:09.226Z,20.42
2022-11-28T20:57:36.754Z,20.75
2022-11-28T21:00:04.557Z,19.63
2022-11-28T21:02:32.112Z,18.80
2022-11-28T21:04:59.668Z,19.80
2022-11-28T21:07:27.125Z,19.00
2022-11-28T21:09:59.929Z,19.80
2022-11-28T21:12:27.443Z,19.33
2022-11-28T21:14:54.875Z,20.13
2022-11-28T21:17:22.464Z,20.27
2022-11-28T21:19:50.006Z,19.70
2022-11-28T21:22:17.473Z,17.95
2022-11-28T21:24:49.196Z,18.42
2022-11-28T21:27:17.643Z,20.48
2022-11-28T21:29:45.733Z,20.70
2022-11-28T21:32:16.054Z,19.73
2022-11-28T21:34:43.607Z,20.25
2022-11-28T21:37:11.027Z,20.30
2022-11-28T21:39:38.675Z,19.27
2022-11-28T21:42:07.563Z,17.83
2022-11-28T21:44:34.946Z,19.27
2022-11-28T21:47:05.122Z,18.35
2022-11-28T21:49:33.171Z,22.23
2022-11-28T21:52:00.633Z,20.25
2022-11-28T21:54:28.184Z,21.10
2022-11-28T21:56:55.677Z,21.02
2022-11-28T21:59:23.198Z,22.90
2022-11-28T22:01:50.812Z,20.63
2022-11-28T22:04:22.076Z,21.13
2022-11-28T22:06:51.388Z,22.27
2022-11-28T22:09:18.928Z,21.45
2022-11-28T22:11:46.303Z,21.67
2022-11-28T22:14:13.863Z,21.13
2022-11-28T22:16:41.618Z,21.77
2022-11-28T22:19:09.336Z,23.80
2022-11-28T22:21:54.133Z,24.08
2022-11-28T22:24:23.633Z,22.40
2022-11-28T22:26:51.128Z,21.77
2022-11-28T22:29:19.369Z,23.80
2022-11-28T22:31:46.892Z,23.75
2022-11-28T22:34:15.383Z,22.98
2022-11-28T22:36:43.104Z,25.20
2022-11-28T22:39:11.622Z,23.58
2022-11-28T22:41:39.917Z,24.20
2022-11-28T22:44:09.842Z,23.40
2022-11-28T22:46:37.712Z,23.45
2022-11-28T22:49:05.288Z,24.95
2022-11-28T22:51:33.550Z,23.83
2022-11-28T22:54:02.587Z,24.98
2022-11-28T22:56:32.248Z,24.95
2022-11-28T22:59:01.319Z,25.25
2022-11-28T23:01:32.386Z,25.92
2022-11-28T23:04:01.149Z,24.67
2022-11-28T23:06:32.827Z,25.48
2022-11-28T23:09:02.684Z,25.02
2022-11-28T23:11:33.136Z,25.35
2022-11-28T23:14:01.956Z,24.80
2022-11-28T23:16:38.342Z,25.67
2022-11-28T23:19:10.653Z,24.15
2022-11-28T23:21:40.920Z,26.42
2022-11-28T23:24:20.725Z,25.25
2022-11-28T23:26:51.056Z,24.95
2022-11-28T23:29:19.997Z,26.30
2022-11-28T23:31:49.496Z,23.60
2022-11-28T23:34:17.093Z,24.88
2022-11-28T23:36:47.046Z,25.58
2022-11-28T23:39:20.206Z,24.83
2022-11-28T23:41:48.647Z,24.52
2022-11-28T23:44:17.687Z,25.13
2022-11-28T23:46:46.869Z,25.83
2022-11-28T23:49:14.397Z,25.90
2022-11-28T23:51:42.233Z,25.30
2022-11-28T23:54:11.751Z,26.83
2022-11-28T23:56:40.568Z,26.10
2022-11-28T23:59:10.989Z,26.15
